Venetia, Pennsylvania
Current Conditions -  °F | °C
As of 10:53 AM on Friday 28 Nov 2014 (Local Time) from KAGC Reporting Station
Overcast Overcast  
Wind Chill: -11°   Ceiling: 3400
Heat Index: -4°   Visibility: 10mi
Dew Point: -12°   Wind: 15mph
Humidity: 55%   Direction: 330°NNW
Pressure: 30.31"   Gusts: 21mph
Location:  40.25°N, 80.03°W
Report Text: KAGC 281553Z 33013G18KT 10SM OVC034 M04/M12 A3031 RMK AO2 SLP285 T10391117
Loading
Personal Weather Stations






























Interactive Weather Map New forecast layout! Learn more

10-Day Weather Forecast

Advertisements
Track Severe Weather on mobile